Flugplatz Schwabmünchen

Für EDNS sind keine METAR/TAF Berichte vorhanden.
Es werden die Flugwettermeldungen vom Flugplatz Lechfeld Airport in 11 km Entfernung angezeigt.

Bericht für ETSL

vom 17.09. um 13:20 UTC

Wind 10 kt aus 310°

Sichtweite 10 km oder mehr

gering bewölkt in 2500 ft

aufgebrochene Bewölkung in 5000 ft

Temperatur 18.0°C

Taupunkt 11.0°C

Luftfeuchtigkeit 64%

Luftdruck 1019 hPa

ETSL 171320Z 31010KT 9999 FEW025 BKN050 18/11 Q1019 BLACKBLU
Keine Prognose (TAF) verfügbar.
Impressum